Time;durP1;ratioP1;P1;durP2;ratioP2;P2;SDS_P1;SDS_P2;PMS_P1;PMS_P2;Temp;Humidity;BMP_temperature;BMP_pressure;BME280_temperature;BME280_humidity;BME280_pressure;Samples;Min_cycle;Max_cycle;Signal;HPM_P1;HPM_P2
2024/03/25 00:00:16;;;;;;;16.20;9.70;;;;;;;3.88;80.21;98302.94;219243;1256;139841;-70
2024/03/25 00:05:39;;;;;;;21.80;11.80;;;;;;;3.89;80.24;98305.87;218935;1257;222684;-69
2024/03/25 00:10:42;;;;;;;16.00;9.60;;;;;;;3.92;80.38;98303.67;219007;1260;140856;-71
2024/03/25 00:15:45;;;;;;;14.70;9.50;;;;;;;3.94;80.37;98306.21;218419;1258;139878;-72
2024/03/25 00:20:48;;;;;;;15.90;10.00;;;;;;;3.94;80.29;98297.36;218483;1260;140542;-71
2024/03/25 00:25:52;;;;;;;15.50;7.90;;;;;;;3.96;80.43;98302.40;218092;1257;140906;-71
2024/03/25 00:30:55;;;;;;;13.60;8.70;;;;;;;3.98;80.44;98296.27;217518;1260;139745;-71
2024/03/25 00:35:59;;;;;;;12.70;6.90;;;;;;;3.99;80.43;98293.44;217373;1260;139600;-71
2024/03/25 00:41:03;;;;;;;12.40;7.40;;;;;;;3.98;80.26;98286.16;217749;1260;140072;-71
2024/03/25 00:46:06;;;;;;;12.90;7.40;;;;;;;3.99;80.47;98289.64;217570;1258;140455;-71
2024/03/25 00:51:11;;;;;;;10.50;6.40;;;;;;;4.00;80.48;98285.23;217523;1257;141130;-71
2024/03/25 00:56:14;;;;;;;9.40;6.20;;;;;;;4.00;80.32;98279.55;217748;1260;140265;-72
2024/03/25 01:01:17;;;;;;;6.90;5.90;;;;;;;3.99;80.40;98277.77;217516;1260;139611;-69
2024/03/25 01:06:21;;;;;;;36.60;8.50;;;;;;;3.96;80.21;98275.67;218232;1257;141239;-69
2024/03/25 01:11:23;;;;;;;11.60;6.40;;;;;;;3.95;80.37;98275.98;217758;1257;140147;-67
2024/03/25 01:16:27;;;;;;;11.30;5.90;;;;;;;3.96;80.41;98271.52;217617;1257;140260;-68
2024/03/25 01:21:30;;;;;;;10.00;5.60;;;;;;;3.96;80.36;98266.30;217740;1258;140074;-69
2024/03/25 01:26:34;;;;;;;9.20;5.50;;;;;;;3.95;80.38;98269.08;217651;1258;141210;-67
2024/03/25 01:31:37;;;;;;;6.70;4.90;;;;;;;3.93;80.39;98268.65;217390;1259;140648;-70
2024/03/25 01:36:40;;;;;;;6.90;5.20;;;;;;;3.87;80.18;98265.44;217913;1257;139689;-68
2024/03/25 01:41:44;;;;;;;10.10;5.80;;;;;;;3.86;80.42;98267.35;218701;1257;139929;-68
2024/03/25 01:46:47;;;;;;;5.90;4.40;;;;;;;3.84;80.38;98268.52;217442;1258;140842;-71
2024/03/25 01:51:54;;;;;;;9.10;5.40;;;;;;;3.81;80.41;98266.56;217674;1257;141322;-68
2024/03/25 01:57:03;;;;;;;5.80;5.30;;;;;;;3.78;80.33;98262.89;218622;1258;140271;-70
2024/03/25 02:02:07;;;;;;;9.20;6.50;;;;;;;3.71;80.26;98259.55;218987;1260;139946;-69
2024/03/25 02:07:12;;;;;;;8.30;5.90;;;;;;;3.63;80.32;98258.27;217734;1257;140361;-70
2024/03/25 02:12:16;;;;;;;9.10;5.80;;;;;;;3.58;80.51;98254.40;217733;1257;139609;-70
2024/03/25 02:17:18;;;;;;;8.40;5.60;;;;;;;3.51;80.39;98250.16;217989;1257;139585;-70
2024/03/25 02:22:21;;;;;;;7.90;5.40;;;;;;;3.42;80.29;98251.02;217664;1257;139719;-70
2024/03/25 02:27:28;;;;;;;7.50;6.10;;;;;;;3.33;80.38;98253.52;217640;1258;139979;-69
2024/03/25 02:32:30;;;;;;;7.20;5.00;;;;;;;3.26;80.43;98256.44;217715;1259;139642;-70
2024/03/25 02:37:33;;;;;;;6.10;4.50;;;;;;;3.22;80.62;98257.21;217621;1260;139597;-70
2024/03/25 02:42:37;;;;;;;9.70;6.00;;;;;;;3.15;80.49;98260.43;217687;1258;140907;-70
2024/03/25 02:47:41;;;;;;;8.40;5.40;;;;;;;3.10;80.99;98259.88;218076;1257;139468;-67
2024/03/25 02:52:45;;;;;;;8.90;5.00;;;;;;;3.07;80.64;98262.61;218004;1258;139473;-69
2024/03/25 02:57:48;;;;;;;14.10;7.00;;;;;;;3.02;80.84;98264.17;217600;1257;141031;-70
2024/03/25 03:02:50;;;;;;;7.20;5.50;;;;;;;3.02;81.21;98265.18;217656;1257;139833;-70
2024/03/25 03:07:53;;;;;;;10.60;5.80;;;;;;;3.04;81.31;98267.55;217998;1257;139598;-69
2024/03/25 03:12:57;;;;;;;8.80;6.40;;;;;;;3.06;81.45;98269.73;218060;1260;139582;-69
2024/03/25 03:18:00;;;;;;;5.20;4.70;;;;;;;3.10;81.66;98272.20;217762;1258;139595;-69
2024/03/25 03:23:03;;;;;;;6.30;5.60;;;;;;;3.10;81.52;98269.73;217938;1257;139714;-69
2024/03/25 03:28:06;;;;;;;9.60;7.40;;;;;;;3.08;81.74;98270.88;217817;1257;140515;-69
2024/03/25 03:33:09;;;;;;;13.00;6.20;;;;;;;3.08;81.72;98275.18;219073;1256;140508;-70
2024/03/25 03:38:12;;;;;;;7.90;6.30;;;;;;;3.08;81.84;98272.98;219175;1257;139676;-69
2024/03/25 03:43:15;;;;;;;6.90;5.80;;;;;;;3.08;81.82;98273.15;217562;1257;140221;-69
2024/03/25 03:48:19;;;;;;;15.70;7.30;;;;;;;3.08;81.87;98273.36;217663;1257;140530;-69
2024/03/25 03:53:23;;;;;;;7.30;6.40;;;;;;;3.10;82.12;98279.58;219969;1256;141534;-69
2024/03/25 03:58:26;;;;;;;11.40;6.70;;;;;;;3.14;82.17;98283.16;218816;1257;141936;-70
2024/03/25 04:03:29;;;;;;;10.80;6.40;;;;;;;3.17;82.20;98286.82;218137;1256;140030;-70
2024/03/25 04:08:32;;;;;;;9.10;7.20;;;;;;;3.19;82.08;98286.99;217864;1257;140421;-69
2024/03/25 04:13:36;;;;;;;9.40;7.20;;;;;;;3.19;82.22;98289.98;218673;1257;139476;-66
2024/03/25 04:18:42;;;;;;;12.40;7.00;;;;;;;3.19;82.32;98287.73;217788;1257;140629;-70
2024/03/25 04:23:45;;;;;;;9.90;6.30;;;;;;;3.17;82.41;98285.20;217650;1257;140067;-69
2024/03/25 04:28:48;;;;;;;14.20;7.20;;;;;;;3.15;82.20;98284.25;218342;1256;140565;-69
2024/03/25 04:33:51;;;;;;;8.80;6.30;;;;;;;3.13;82.26;98286.50;217612;1255;139399;-70
2024/03/25 04:38:54;;;;;;;6.20;5.40;;;;;;;3.09;82.38;98292.70;217944;1256;140014;-69
2024/03/25 04:43:57;;;;;;;6.10;4.70;;;;;;;3.04;82.31;98297.98;217675;1259;139245;-70
2024/03/25 04:49:00;;;;;;;6.80;5.90;;;;;;;3.03;82.64;98300.21;217671;1259;140026;-69
2024/03/25 04:54:03;;;;;;;8.80;6.50;;;;;;;3.03;82.81;98296.48;217631;1259;139982;-69
2024/03/25 04:59:06;;;;;;;8.90;6.10;;;;;;;3.10;83.03;98303.30;218171;1257;139894;-69
2024/03/25 05:04:09;;;;;;;12.10;7.20;;;;;;;3.17;83.31;98300.02;217997;1256;140374;-70
2024/03/25 05:09:12;;;;;;;7.40;5.90;;;;;;;3.26;83.23;98303.52;217522;1259;139884;-69
2024/03/25 05:14:15;;;;;;;9.70;6.10;;;;;;;3.37;83.61;98312.64;217638;1257;140426;-69
2024/03/25 05:19:18;;;;;;;6.00;5.30;;;;;;;3.45;83.80;98316.59;218291;1256;140362;-70
2024/03/25 05:24:21;;;;;;;5.30;4.10;;;;;;;3.54;83.85;98318.58;218047;1257;140127;-70
2024/03/25 05:29:23;;;;;;;12.10;8.20;;;;;;;3.62;84.00;98322.77;219234;1256;139989;-71
2024/03/25 05:34:27;;;;;;;8.30;6.30;;;;;;;3.72;84.15;98323.79;217758;1257;139634;-71
2024/03/25 05:39:30;;;;;;;12.70;6.60;;;;;;;3.82;84.29;98325.45;217475;1256;139419;-70
2024/03/25 05:44:33;;;;;;;6.50;5.70;;;;;;;3.89;84.48;98327.70;217688;1257;141197;-69
2024/03/25 05:49:36;;;;;;;9.70;5.50;;;;;;;4.03;84.53;98329.98;218306;1257;140039;-70
2024/03/25 05:54:39;;;;;;;8.60;6.50;;;;;;;4.23;84.62;98329.95;217898;1257;140359;-69
2024/03/25 05:59:42;;;;;;;8.40;5.60;;;;;;;4.31;84.60;98330.60;218603;1256;140247;-72
2024/03/25 06:04:45;;;;;;;10.10;6.00;;;;;;;4.34;84.36;98335.73;217907;1258;139945;-69
2024/03/25 06:09:48;;;;;;;8.30;6.30;;;;;;;4.46;84.61;98333.17;217645;1259;140089;-68
2024/03/25 06:14:51;;;;;;;7.70;6.10;;;;;;;4.63;84.48;98339.08;217542;1259;140639;-69
2024/03/25 06:19:54;;;;;;;7.40;6.30;;;;;;;4.75;84.27;98337.98;217637;1257;139399;-69
2024/03/25 06:24:57;;;;;;;10.50;7.90;;;;;;;4.92;84.19;98339.27;218520;1257;141106;-69
2024/03/25 06:35:22;;;;;;;4.60;3.80;;;;;;;5.17;84.34;98348.96;217895;1257;139939;-70
2024/03/25 06:40:25;;;;;;;7.10;6.00;;;;;;;5.25;84.16;98350.26;217523;1257;139472;-70
2024/03/25 06:45:29;;;;;;;7.10;6.40;;;;;;;5.38;83.97;98355.77;217681;1256;140732;-69
2024/03/25 06:50:32;;;;;;;8.40;7.50;;;;;;;5.50;84.07;98360.59;217779;1256;139906;-70
2024/03/25 06:55:35;;;;;;;8.10;7.30;;;;;;;5.56;83.87;98363.44;217686;1255;139883;-70
2024/03/25 07:00:38;;;;;;;8.20;7.00;;;;;;;5.49;83.65;98371.73;218047;1256;140162;-71
2024/03/25 07:05:46;;;;;;;8.80;6.00;;;;;;;5.44;83.29;98373.95;217696;1255;140282;-71
2024/03/25 07:10:50;;;;;;;7.50;6.50;;;;;;;5.36;83.72;98378.93;217704;1256;140575;-70
2024/03/25 07:15:53;;;;;;;7.30;4.40;;;;;;;5.36;83.61;98384.27;217952;1257;139711;-70
2024/03/25 07:20:56;;;;;;;5.50;4.70;;;;;;;5.39;83.67;98386.80;217675;1259;140176;-70
2024/03/25 07:25:59;;;;;;;5.50;5.00;;;;;;;5.48;83.61;98391.42;217783;1257;139025;-72
2024/03/25 07:31:02;;;;;;;5.50;4.50;;;;;;;5.77;83.53;98391.42;217742;1257;139904;-71
2024/03/25 07:36:05;;;;;;;4.10;3.80;;;;;;;5.90;83.23;98390.27;217431;1257;139577;-70
2024/03/25 07:41:09;;;;;;;5.70;4.60;;;;;;;5.90;82.80;98395.66;217645;1255;140163;-71
2024/03/25 07:46:12;;;;;;;3.70;3.20;;;;;;;5.80;82.56;98403.73;217435;1257;139736;-71
2024/03/25 07:51:16;;;;;;;4.70;4.30;;;;;;;5.67;82.60;98411.31;218383;1257;143600;-71
2024/03/25 07:56:20;;;;;;;4.40;3.30;;;;;;;5.60;82.43;98409.10;217576;1257;140513;-70
2024/03/25 08:01:24;;;;;;;4.70;4.20;;;;;;;5.52;82.72;98414.34;217777;1259;140009;-69
2024/03/25 08:06:28;;;;;;;3.80;3.50;;;;;;;5.53;83.26;98418.10;217789;1256;139532;-68
2024/03/25 08:11:33;;;;;;;6.20;3.70;;;;;;;5.62;83.22;98419.98;218705;1256;140014;-71
2024/03/25 08:16:36;;;;;;;4.30;3.90;;;;;;;5.75;83.53;98425.94;217603;1257;139345;-69
2024/03/25 08:21:39;;;;;;;3.80;3.40;;;;;;;5.84;83.54;98429.97;217799;1257;139912;-69
2024/03/25 08:26:42;;;;;;;5.50;5.00;;;;;;;5.85;83.57;98433.04;218254;1257;139721;-68
2024/03/25 08:31:45;;;;;;;6.40;5.30;;;;;;;5.87;83.52;98432.70;217694;1256;140240;-72
2024/03/25 08:36:48;;;;;;;5.60;4.90;;;;;;;5.93;83.68;98438.10;218570;1256;140142;-67
2024/03/25 08:41:52;;;;;;;6.10;5.40;;;;;;;6.02;83.58;98440.67;217776;1257;139808;-69
2024/03/25 08:46:56;;;;;;;5.30;4.50;;;;;;;6.11;83.23;98444.89;217821;1256;141216;-69
2024/03/25 08:51:59;;;;;;;6.10;5.40;;;;;;;6.18;83.27;98445.80;217763;1259;140544;-69
2024/03/25 08:57:01;;;;;;;5.00;4.40;;;;;;;6.24;83.13;98447.98;217641;1257;140617;-73
2024/03/25 09:02:04;;;;;;;8.80;5.50;;;;;;;6.56;83.69;98451.59;217597;1259;140032;-72
2024/03/25 09:07:06;;;;;;;8.20;6.50;;;;;;;7.01;83.59;98450.02;217695;1257;139418;-73
2024/03/25 09:12:09;;;;;;;4.80;4.40;;;;;;;7.32;83.34;98449.02;218192;1256;139662;-72
2024/03/25 09:17:12;;;;;;;4.20;3.80;;;;;;;7.69;83.20;98452.36;218440;1256;140049;-71
2024/03/25 09:22:15;;;;;;;6.00;5.20;;;;;;;7.93;82.85;98453.91;218423;1257;140141;-73
2024/03/25 09:27:18;;;;;;;6.20;5.60;;;;;;;7.91;81.92;98460.16;217991;1259;139294;-73
2024/03/25 09:32:23;;;;;;;4.80;4.30;;;;;;;7.86;81.30;98464.61;218634;1257;139107;-72
2024/03/25 09:37:27;;;;;;;4.80;4.30;;;;;;;7.76;80.60;98472.44;218343;1256;139388;-73
2024/03/25 09:42:49;;;;;;;5.20;4.80;;;;;;;7.58;80.63;98473.13;218666;1256;142139;-72
2024/03/25 09:47:55;;;;;;;6.60;6.00;;;;;;;7.45;80.85;98475.23;218363;1256;139894;-74
2024/03/25 09:52:58;;;;;;;3.90;3.30;;;;;;;7.38;80.88;98477.89;217780;1259;139968;-72
2024/03/25 09:58:02;;;;;;;3.40;3.10;;;;;;;7.36;80.86;98481.93;217950;1257;140059;-71
2024/03/25 10:03:06;;;;;;;5.20;4.40;;;;;;;7.31;80.20;98488.08;217711;1259;139395;-71
2024/03/25 10:08:09;;;;;;;5.70;5.10;;;;;;;7.20;80.14;98488.35;217693;1257;139434;-71
2024/03/25 10:13:11;;;;;;;5.40;4.90;;;;;;;7.11;80.02;98494.14;218155;1256;140189;-70
2024/03/25 10:18:14;;;;;;;6.30;5.70;;;;;;;7.05;80.28;98498.82;218253;1257;139660;-70
2024/03/25 10:23:22;;;;;;;9.30;8.50;;;;;;;7.07;80.87;98500.93;217821;1259;140330;-71
2024/03/25 10:28:25;;;;;;;5.40;4.90;;;;;;;7.16;80.78;98499.20;217711;1257;139622;-70
2024/03/25 10:33:28;;;;;;;5.90;5.40;;;;;;;7.29;80.82;98497.43;217657;1257;139252;-70
2024/03/25 10:38:32;;;;;;;5.90;5.20;;;;;;;7.46;80.70;98499.52;217934;1257;140164;-70
2024/03/25 10:43:36;;;;;;;5.80;5.30;;;;;;;7.70;80.82;98496.55;218204;1257;365656;-71
2024/03/25 10:48:43;;;;;;;5.00;4.50;;;;;;;7.81;80.29;98492.28;217921;1257;139571;-73
2024/03/25 10:53:47;;;;;;;4.70;3.60;;;;;;;7.96;80.28;98504.13;217886;1257;140731;-71
2024/03/25 10:58:50;;;;;;;4.10;3.80;;;;;;;8.05;79.98;98500.16;217791;1256;139314;-73
2024/03/25 11:03:53;;;;;;;4.40;4.00;;;;;;;8.11;79.63;98502.67;217537;1255;159384;-71
2024/03/25 11:08:58;;;;;;;3.70;3.40;;;;;;;8.36;80.00;98502.33;218934;1258;139831;-72
2024/03/25 11:14:15;;;;;;;3.80;3.20;;;;;;;8.72;79.97;98501.39;220326;1256;139777;-72
2024/03/25 11:19:19;;;;;;;5.80;5.40;;;;;;;9.11;79.76;98503.20;220456;1257;140605;-72
2024/03/25 11:24:29;;;;;;;8.50;6.60;;;;;;;9.26;78.70;98511.33;217779;1259;140768;-72
2024/03/25 11:29:32;;;;;;;17.00;5.90;;;;;;;8.90;77.84;98520.04;218185;1257;140606;-71
2024/03/25 11:34:36;;;;;;;6.40;5.60;;;;;;;8.52;77.76;98523.10;217619;1259;142444;-72
2024/03/25 11:39:39;;;;;;;4.70;4.20;;;;;;;8.29;78.41;98525.70;218036;1256;139952;-71
2024/03/25 11:44:43;;;;;;;5.00;4.40;;;;;;;8.19;78.71;98533.30;218372;1257;153714;-71
2024/03/25 11:49:47;;;;;;;6.30;5.80;;;;;;;8.35;79.66;98528.44;217514;1257;139555;-72
2024/03/25 11:55:09;;;;;;;5.10;4.60;;;;;;;8.58;79.36;98525.48;217697;1259;139959;-71
2024/03/25 12:00:15;;;;;;;4.70;4.20;;;;;;;8.62;79.35;98524.77;217768;1257;139843;-71
2024/03/25 12:05:19;;;;;;;6.00;5.50;;;;;;;8.82;79.19;98526.63;217705;1257;139777;-72
2024/03/25 12:15:47;;;;;;;5.10;4.60;;;;;;;8.89;78.57;98523.33;217762;1259;141533;-72
2024/03/25 12:20:52;;;;;;;4.70;4.30;;;;;;;9.07;78.81;98528.58;217404;1257;139701;-72
2024/03/25 12:25:55;;;;;;;4.00;3.60;;;;;;;9.27;78.91;98528.63;217773;1258;139836;-73
2024/03/25 12:30:59;;;;;;;9.50;5.00;;;;;;;9.48;78.56;98531.74;217998;1259;139831;-72
2024/03/25 12:36:05;;;;;;;4.30;3.90;;;;;;;9.55;78.68;98529.91;218498;1259;139994;-73
2024/03/25 12:41:12;;;;;;;6.40;4.90;;;;;;;9.60;78.73;98533.51;218189;1259;140199;-72
2024/03/25 12:46:16;;;;;;;5.70;2.80;;;;;;;9.47;78.15;98555.02;217548;1257;140273;-72
2024/03/25 12:51:19;;;;;;;3.60;2.40;;;;;;;8.85;75.88;98568.67;217555;1257;140134;-73
2024/03/25 12:56:22;;;;;;;2.90;2.20;;;;;;;8.16;75.88;98567.29;217618;1257;139904;-71
2024/03/25 13:01:25;;;;;;;2.70;2.20;;;;;;;7.59;76.02;98570.39;217720;1259;141375;-72
2024/03/25 13:06:28;;;;;;;3.70;3.40;;;;;;;7.20;76.87;98567.17;217607;1257;141906;-71
2024/03/25 13:11:31;;;;;;;3.40;3.10;;;;;;;7.02;77.06;98563.54;218673;1257;152384;-72
2024/03/25 13:16:35;;;;;;;2.20;2.00;;;;;;;7.21;78.74;98566.02;220314;1257;139734;-72
2024/03/25 13:21:38;;;;;;;6.60;2.60;;;;;;;7.57;79.81;98575.27;219811;1259;139380;-71
2024/03/25 13:26:43;;;;;;;3.60;2.40;;;;;;;7.78;79.77;98577.25;219034;1257;140314;-72
2024/03/25 13:31:47;;;;;;;7.60;2.60;;;;;;;7.93;80.15;98579.41;218148;1257;141665;-71
2024/03/25 13:36:50;;;;;;;4.00;3.00;;;;;;;8.10;80.40;98586.05;218806;1255;140191;-72
2024/03/25 13:41:54;;;;;;;2.80;2.30;;;;;;;8.27;80.52;98582.05;217762;1259;140464;-71
2024/03/25 13:46:58;;;;;;;3.40;3.10;;;;;;;8.34;80.67;98586.64;217561;1257;139531;-72
2024/03/25 13:52:03;;;;;;;5.10;3.60;;;;;;;8.36;80.45;98588.52;217548;1257;140507;-70
2024/03/25 13:57:07;;;;;;;3.60;3.40;;;;;;;8.24;80.45;98592.92;217901;1259;140701;-71
2024/03/25 14:02:11;;;;;;;7.90;7.20;;;;;;;8.25;80.74;98594.27;217577;1255;139209;-72
2024/03/25 14:07:16;;;;;;;4.20;3.80;;;;;;;8.34;80.93;98601.08;217560;1255;139297;-72
2024/03/25 14:12:19;;;;;;;4.10;3.70;;;;;;;8.50;80.94;98597.70;217882;1257;139635;-71
2024/03/25 14:17:22;;;;;;;3.00;2.80;;;;;;;8.72;81.16;98598.05;217761;1256;139559;-74
2024/03/25 14:22:25;;;;;;;6.80;4.00;;;;;;;8.87;81.01;98598.77;217975;1256;139528;-71
2024/03/25 14:27:29;;;;;;;3.50;3.10;;;;;;;8.83;80.48;98599.82;217690;1257;139745;-72
2024/03/25 14:32:32;;;;;;;4.60;3.40;;;;;;;8.71;80.26;98595.55;217539;1256;139971;-72
2024/03/25 14:37:35;;;;;;;4.00;3.60;;;;;;;8.77;80.95;98596.47;217474;1257;140269;-74
2024/03/25 14:42:38;;;;;;;3.70;3.10;;;;;;;8.97;80.94;98595.90;217759;1259;140638;-72
2024/03/25 14:47:41;;;;;;;3.60;3.30;;;;;;;9.23;80.41;98590.38;218963;1257;139771;-72
2024/03/25 14:52:46;;;;;;;4.30;3.90;;;;;;;9.51;79.91;98587.46;217524;1257;141128;-72
2024/03/25 14:57:48;;;;;;;4.30;3.40;;;;;;;9.51;79.69;98590.11;217567;1257;139429;-71
2024/03/25 15:02:51;;;;;;;6.50;5.90;;;;;;;9.43;79.63;98590.88;217576;1257;140514;-71
2024/03/25 15:07:54;;;;;;;3.80;3.50;;;;;;;9.30;79.16;98594.43;217530;1255;139440;-72
2024/03/25 15:12:58;;;;;;;4.20;3.80;;;;;;;9.11;78.93;98595.86;217572;1257;140622;-72
2024/03/25 15:18:01;;;;;;;4.60;4.00;;;;;;;8.85;78.87;98607.85;218528;1257;139994;-72
2024/03/25 15:23:06;;;;;;;3.40;3.10;;;;;;;8.51;78.07;98616.20;217383;1257;140518;-72
2024/03/25 15:28:09;;;;;;;4.50;3.90;;;;;;;8.07;77.60;98621.68;217574;1257;139611;-71
2024/03/25 15:33:11;;;;;;;5.00;3.90;;;;;;;7.69;77.77;98623.92;217330;1257;140668;-73
2024/03/25 15:38:14;;;;;;;5.20;3.30;;;;;;;7.43;78.16;98626.42;217869;1256;140122;-71
2024/03/25 15:43:18;;;;;;;2.60;2.40;;;;;;;7.28;78.63;98638.08;217834;1257;140172;-71
2024/03/25 15:48:21;;;;;;;3.90;2.30;;;;;;;7.27;78.81;98639.12;217374;1260;140121;-71
2024/03/25 15:53:24;;;;;;;2.50;2.30;;;;;;;7.35;79.23;98638.02;217355;1257;140685;-72
2024/03/25 15:58:26;;;;;;;2.90;2.60;;;;;;;7.43;79.36;98643.44;217326;1257;141887;-71
2024/03/25 16:03:29;;;;;;;4.60;3.00;;;;;;;7.44;79.64;98648.08;217349;1257;142375;-71
2024/03/25 16:08:31;;;;;;;1.70;1.60;;;;;;;7.40;79.61;98649.23;217303;1256;140622;-71
2024/03/25 16:13:34;;;;;;;4.20;2.50;;;;;;;7.39;79.97;98655.27;217229;1262;140636;-71
2024/03/25 16:18:36;;;;;;;2.30;2.20;;;;;;;7.36;80.47;98660.63;217321;1257;140577;-70
2024/03/25 16:23:39;;;;;;;2.40;2.00;;;;;;;7.28;80.49;98666.23;217405;1260;140040;-71
2024/03/25 16:28:42;;;;;;;3.00;2.50;;;;;;;7.19;80.23;98671.37;217406;1257;139948;-70
2024/03/25 16:33:45;;;;;;;2.20;2.00;;;;;;;7.09;80.41;98675.05;217658;1259;139378;-71
2024/03/25 16:38:47;;;;;;;3.10;1.80;;;;;;;6.97;80.45;98681.41;217528;1257;139410;-71
2024/03/25 16:43:50;;;;;;;1.90;1.80;;;;;;;6.83;80.39;98690.77;217561;1259;139922;-70
2024/03/25 16:48:52;;;;;;;2.50;2.30;;;;;;;6.65;80.30;98696.16;217639;1257;232430;-71
2024/03/25 16:53:55;;;;;;;2.30;1.80;;;;;;;6.39;80.30;98700.86;217647;1260;140624;-71
2024/03/25 16:58:57;;;;;;;2.10;2.00;;;;;;;6.15;80.36;98704.48;218693;1260;139759;-70
2024/03/25 17:04:00;;;;;;;2.40;2.20;;;;;;;5.99;80.63;98705.80;217565;1257;140533;-70
2024/03/25 17:09:03;;;;;;;2.60;2.30;;;;;;;5.82;80.38;98711.30;218279;1259;139415;-71
2024/03/25 17:14:06;;;;;;;3.00;2.70;;;;;;;5.60;80.25;98710.14;217492;1259;139891;-73
2024/03/25 17:19:08;;;;;;;2.80;2.60;;;;;;;5.42;80.60;98722.83;217523;1260;141416;-72
2024/03/25 17:24:10;;;;;;;2.70;2.50;;;;;;;5.28;81.08;98732.37;217521;1260;140465;-70
2024/03/25 17:29:13;;;;;;;3.60;3.30;;;;;;;5.13;81.01;98745.04;217799;1257;139393;-72
2024/03/25 17:34:15;;;;;;;2.40;2.20;;;;;;;4.98;81.09;98743.79;218018;1260;139643;-70
2024/03/25 17:39:18;;;;;;;3.00;2.50;;;;;;;4.83;81.17;98750.16;218618;1257;139866;-70
2024/03/25 17:44:21;;;;;;;4.20;3.80;;;;;;;4.67;81.35;98748.75;217597;1259;139401;-69
2024/03/25 17:49:27;;;;;;;5.50;4.70;;;;;;;4.55;81.49;98749.59;217643;1258;140690;-70
2024/03/25 17:54:30;;;;;;;6.20;4.70;;;;;;;4.44;82.10;98750.23;217673;1260;140692;-68
2024/03/25 17:59:33;;;;;;;8.40;6.00;;;;;;;4.36;82.32;98754.44;217678;1260;141236;-70
2024/03/25 18:04:36;;;;;;;7.50;4.70;;;;;;;4.30;82.65;98757.19;217484;1259;141390;-72
2024/03/25 18:09:41;;;;;;;6.30;4.10;;;;;;;4.26;82.94;98762.48;217643;1256;139181;-70
2024/03/25 18:14:44;;;;;;;5.40;4.30;;;;;;;4.23;83.06;98768.60;217854;1258;140795;-70
2024/03/25 18:19:46;;;;;;;6.70;4.90;;;;;;;4.20;83.58;98777.42;217629;1259;140593;-70
2024/03/25 18:24:48;;;;;;;8.10;4.80;;;;;;;4.21;83.85;98783.46;217377;1262;139859;-69
2024/03/25 18:29:51;;;;;;;6.60;4.30;;;;;;;4.22;84.15;98784.71;217612;1260;141345;-69
2024/03/25 18:34:55;;;;;;;8.00;5.20;;;;;;;4.21;84.42;98792.14;217417;1260;140385;-69
2024/03/25 18:39:58;;;;;;;11.50;10.40;;;;;;;4.24;84.74;98803.58;217578;1261;140008;-68
2024/03/25 18:45:01;;;;;;;13.10;11.80;;;;;;;4.27;84.92;98805.20;219141;1260;140396;-69
2024/03/25 18:50:05;;;;;;;10.90;9.10;;;;;;;4.32;84.96;98812.55;220203;1257;140456;-74
2024/03/25 18:55:08;;;;;;;13.20;9.30;;;;;;;4.38;85.31;98817.30;218623;1257;140159;-74
2024/03/25 19:00:11;;;;;;;10.10;7.30;;;;;;;4.46;85.47;98819.96;217455;1259;139932;-70
2024/03/25 19:05:15;;;;;;;9.10;6.80;;;;;;;4.53;85.49;98819.01;220700;1257;139584;-72
2024/03/25 19:10:17;;;;;;;10.30;6.50;;;;;;;4.56;85.58;98825.71;218482;1258;141792;-73
2024/03/25 19:15:20;;;;;;;8.70;6.00;;;;;;;4.57;85.43;98828.02;217506;1257;139697;-69
2024/03/25 19:20:23;;;;;;;6.70;5.40;;;;;;;4.54;85.52;98832.23;217360;1260;140737;-69
2024/03/25 19:25:27;;;;;;;6.30;5.10;;;;;;;4.51;85.57;98832.83;217883;1260;140032;-70
2024/03/25 19:30:30;;;;;;;9.30;5.40;;;;;;;4.47;85.49;98834.97;217525;1258;150613;-70
2024/03/25 19:35:33;;;;;;;10.60;5.80;;;;;;;4.42;85.66;98838.87;217663;1257;141139;-71
2024/03/25 19:40:37;;;;;;;11.30;5.90;;;;;;;4.35;85.73;98836.73;217579;1257;139534;-69
2024/03/25 19:45:41;;;;;;;9.10;7.10;;;;;;;4.31;85.59;98842.08;217368;1258;140498;-70
2024/03/25 19:50:44;;;;;;;6.60;5.90;;;;;;;4.24;85.63;98840.70;217586;1259;139516;-69
2024/03/25 19:55:57;;;;;;;7.60;6.70;;;;;;;4.15;85.52;98849.12;217601;1256;139802;-70
2024/03/25 20:01:11;;;;;;;5.70;5.10;;;;;;;4.07;85.45;98854.70;217478;1260;139570;-69
2024/03/25 20:06:15;;;;;;;12.00;6.70;;;;;;;3.99;85.52;98856.13;217596;1260;140135;-69
2024/03/25 20:11:18;;;;;;;7.50;6.00;;;;;;;3.90;85.39;98859.38;217675;1259;139486;-68
2024/03/25 20:16:22;;;;;;;11.30;7.80;;;;;;;3.80;85.66;98863.45;217517;1260;140099;-69
2024/03/25 20:21:24;;;;;;;17.60;8.20;;;;;;;3.72;85.63;98860.07;217332;1256;141622;-69
2024/03/25 20:26:27;;;;;;;12.60;8.70;;;;;;;3.65;85.77;98869.29;217500;1260;140629;-68
2024/03/25 20:31:30;;;;;;;12.20;8.10;;;;;;;3.60;85.78;98870.33;218580;1255;140426;-69
2024/03/25 20:36:33;;;;;;;12.60;9.40;;;;;;;3.54;85.83;98875.10;217366;1257;141139;-71
2024/03/25 20:41:35;;;;;;;15.40;9.70;;;;;;;3.50;85.96;98877.86;217726;1260;139985;-69
2024/03/25 20:46:38;;;;;;;13.70;9.90;;;;;;;3.47;86.09;98881.92;217995;1257;139865;-69
2024/03/25 20:51:41;;;;;;;16.10;11.60;;;;;;;3.41;85.85;98883.33;219679;1257;140571;-70
2024/03/25 20:56:43;;;;;;;16.50;12.00;;;;;;;3.34;85.75;98887.15;217513;1258;140482;-70
2024/03/25 21:01:46;;;;;;;16.90;10.80;;;;;;;3.26;85.57;98889.48;217702;1260;140527;-68
2024/03/25 21:06:49;;;;;;;18.50;10.40;;;;;;;3.14;85.50;98890.45;217606;1255;139839;-69
2024/03/25 21:11:51;;;;;;;12.90;8.10;;;;;;;3.04;85.74;98889.06;217644;1260;139967;-68
2024/03/25 21:16:55;;;;;;;17.20;10.40;;;;;;;2.96;85.61;98894.55;217809;1258;139858;-69
2024/03/25 21:21:58;;;;;;;13.80;8.60;;;;;;;2.90;85.81;98896.59;217617;1260;140137;-69
2024/03/25 21:27:01;;;;;;;17.10;10.70;;;;;;;2.76;85.24;98899.05;217662;1256;140076;-69
2024/03/25 21:32:03;;;;;;;17.70;12.00;;;;;;;2.65;85.47;98898.58;217786;1260;140919;-69
2024/03/25 21:37:07;;;;;;;23.50;13.10;;;;;;;2.56;85.49;98902.54;217578;1258;141042;-68
2024/03/25 21:42:10;;;;;;;19.90;10.10;;;;;;;2.46;85.63;98904.77;217978;1260;140001;-69
2024/03/25 21:47:12;;;;;;;22.50;15.30;;;;;;;2.39;85.66;98906.64;217744;1257;139968;-68
2024/03/25 21:52:16;;;;;;;20.00;10.60;;;;;;;2.28;85.50;98903.11;217444;1258;140319;-68
2024/03/25 21:57:20;;;;;;;18.80;13.40;;;;;;;2.17;85.20;98907.06;217588;1258;139699;-67
2024/03/25 22:02:23;;;;;;;23.90;13.40;;;;;;;2.08;85.45;98907.35;217715;1260;140761;-68
2024/03/25 22:07:29;;;;;;;49.20;19.60;;;;;;;1.99;85.50;98913.99;217715;1260;139911;-68
2024/03/25 22:12:31;;;;;;;39.60;18.10;;;;;;;1.91;85.76;98917.98;217864;1259;139731;-69
2024/03/25 22:17:34;;;;;;;68.50;22.80;;;;;;;1.83;85.78;98917.96;218161;1259;140230;-69
2024/03/25 22:22:38;;;;;;;60.40;22.20;;;;;;;1.75;85.97;98925.34;217584;1258;140217;-72
2024/03/25 22:27:41;;;;;;;44.00;15.90;;;;;;;1.67;85.95;98928.59;217765;1257;140034;-69
2024/03/25 22:32:44;;;;;;;34.50;14.60;;;;;;;1.65;86.44;98923.73;217490;1260;140398;-69
2024/03/25 22:37:46;;;;;;;30.50;15.40;;;;;;;1.65;86.66;98923.61;219741;1256;140908;-69
2024/03/25 22:42:49;;;;;;;31.70;18.60;;;;;;;1.63;86.28;98932.28;217526;1260;139824;-69
2024/03/25 22:47:51;;;;;;;34.90;17.30;;;;;;;1.58;86.17;98927.54;217187;1257;779125;-69
2024/03/25 22:52:55;;;;;;;37.00;17.50;;;;;;;1.51;86.12;98931.36;217506;1258;141076;-70
2024/03/25 22:57:58;;;;;;;51.80;23.00;;;;;;;1.42;86.11;98930.63;217449;1258;140742;-70
2024/03/25 23:03:01;;;;;;;85.70;37.60;;;;;;;1.34;86.15;98927.48;218000;1256;139737;-71
2024/03/25 23:08:05;;;;;;;83.00;35.20;;;;;;;1.24;86.06;98929.09;217653;1257;140721;-70
2024/03/25 23:13:07;;;;;;;52.70;26.70;;;;;;;1.14;85.98;98938.22;217562;1257;141843;-68
2024/03/25 23:18:10;;;;;;;41.10;21.70;;;;;;;1.06;86.21;98939.98;217634;1257;140039;-70
2024/03/25 23:23:14;;;;;;;30.90;18.50;;;;;;;0.98;86.21;98936.49;217691;1257;140021;-69
2024/03/25 23:28:18;;;;;;;32.90;15.90;;;;;;;0.89;86.20;98933.70;218019;1260;141295;-69
2024/03/25 23:33:22;;;;;;;27.50;15.40;;;;;;;0.81;86.39;98937.04;217679;1257;140595;-67